sensor_id;sensor_type;location;lat;lon;timestamp;P1;durP1;ratioP1;P2;durP2;ratioP2
9473;SDS011;8865;47.636;7.692;2023-04-28T00:02:06;3.63;;;2.30;;
9473;SDS011;8865;47.636;7.692;2023-04-28T00:04:32;3.27;;;2.20;;
9473;SDS011;8865;47.636;7.692;2023-04-28T00:07:04;3.50;;;2.10;;
9473;SDS011;8865;47.636;7.692;2023-04-28T00:09:31;2.60;;;2.40;;
9473;SDS011;8865;47.636;7.692;2023-04-28T00:11:57;6.70;;;2.57;;
9473;SDS011;8865;47.636;7.692;2023-04-28T00:14:24;2.53;;;2.20;;
9473;SDS011;8865;47.636;7.692;2023-04-28T00:16:50;2.47;;;2.27;;
9473;SDS011;8865;47.636;7.692;2023-04-28T00:19:16;3.13;;;2.27;;
9473;SDS011;8865;47.636;7.692;2023-04-28T00:21:42;3.57;;;2.53;;
9473;SDS011;8865;47.636;7.692;2023-04-28T00:24:09;2.87;;;2.53;;
9473;SDS011;8865;47.636;7.692;2023-04-28T00:26:34;3.60;;;2.33;;
9473;SDS011;8865;47.636;7.692;2023-04-28T00:29:01;2.27;;;2.07;;
9473;SDS011;8865;47.636;7.692;2023-04-28T00:31:27;2.63;;;2.43;;
9473;SDS011;8865;47.636;7.692;2023-04-28T00:33:53;5.00;;;2.20;;
9473;SDS011;8865;47.636;7.692;2023-04-28T00:36:19;2.90;;;1.73;;
9473;SDS011;8865;47.636;7.692;2023-04-28T00:38:45;2.47;;;1.90;;
9473;SDS011;8865;47.636;7.692;2023-04-28T00:41:11;2.53;;;2.20;;
9473;SDS011;8865;47.636;7.692;2023-04-28T00:43:44;2.33;;;2.10;;
9473;SDS011;8865;47.636;7.692;2023-04-28T00:46:12;3.10;;;2.00;;
9473;SDS011;8865;47.636;7.692;2023-04-28T00:48:45;3.50;;;2.20;;
9473;SDS011;8865;47.636;7.692;2023-04-28T00:51:11;2.93;;;2.00;;
9473;SDS011;8865;47.636;7.692;2023-04-28T00:53:37;3.83;;;1.97;;
9473;SDS011;8865;47.636;7.692;2023-04-28T00:56:04;4.60;;;2.33;;
9473;SDS011;8865;47.636;7.692;2023-04-28T00:58:30;4.73;;;3.50;;
9473;SDS011;8865;47.636;7.692;2023-04-28T01:01:05;2.40;;;2.20;;
9473;SDS011;8865;47.636;7.692;2023-04-28T01:03:34;4.70;;;2.30;;
9473;SDS011;8865;47.636;7.692;2023-04-28T01:06:05;2.67;;;1.83;;
9473;SDS011;8865;47.636;7.692;2023-04-28T01:08:33;3.50;;;2.27;;
9473;SDS011;8865;47.636;7.692;2023-04-28T01:11:00;3.43;;;2.20;;
9473;SDS011;8865;47.636;7.692;2023-04-28T01:13:26;4.13;;;2.00;;
9473;SDS011;8865;47.636;7.692;2023-04-28T01:15:54;3.00;;;2.20;;
9473;SDS011;8865;47.636;7.692;2023-04-28T01:18:20;2.53;;;2.20;;
9473;SDS011;8865;47.636;7.692;2023-04-28T01:20:47;5.80;;;2.30;;
9473;SDS011;8865;47.636;7.692;2023-04-28T01:23:13;2.50;;;2.30;;
9473;SDS011;8865;47.636;7.692;2023-04-28T01:25:41;3.50;;;2.43;;
9473;SDS011;8865;47.636;7.692;2023-04-28T01:28:08;2.50;;;2.30;;
9473;SDS011;8865;47.636;7.692;2023-04-28T01:30:34;3.63;;;2.50;;
9473;SDS011;8865;47.636;7.692;2023-04-28T01:33:01;2.40;;;2.20;;
9473;SDS011;8865;47.636;7.692;2023-04-28T01:35:28;5.60;;;2.40;;
9473;SDS011;8865;47.636;7.692;2023-04-28T01:37:54;3.10;;;2.13;;
9473;SDS011;8865;47.636;7.692;2023-04-28T01:40:20;3.23;;;2.30;;
9473;SDS011;8865;47.636;7.692;2023-04-28T01:42:46;4.43;;;2.40;;
9473;SDS011;8865;47.636;7.692;2023-04-28T01:45:12;3.83;;;2.50;;
9473;SDS011;8865;47.636;7.692;2023-04-28T01:47:38;3.23;;;2.50;;
9473;SDS011;8865;47.636;7.692;2023-04-28T01:50:04;3.33;;;2.60;;
9473;SDS011;8865;47.636;7.692;2023-04-28T01:52:31;2.50;;;2.30;;
9473;SDS011;8865;47.636;7.692;2023-04-28T01:54:56;2.70;;;2.50;;
9473;SDS011;8865;47.636;7.692;2023-04-28T01:57:22;2.80;;;2.20;;
9473;SDS011;8865;47.636;7.692;2023-04-28T01:59:48;5.43;;;2.50;;
9473;SDS011;8865;47.636;7.692;2023-04-28T02:02:14;3.37;;;2.40;;
9473;SDS011;8865;47.636;7.692;2023-04-28T02:04:40;4.93;;;2.83;;
9473;SDS011;8865;47.636;7.692;2023-04-28T02:07:06;3.10;;;2.37;;
9473;SDS011;8865;47.636;7.692;2023-04-28T02:09:32;2.83;;;2.40;;
9473;SDS011;8865;47.636;7.692;2023-04-28T02:11:58;3.83;;;2.67;;
9473;SDS011;8865;47.636;7.692;2023-04-28T02:14:27;6.60;;;2.73;;
9473;SDS011;8865;47.636;7.692;2023-04-28T02:16:54;3.17;;;2.70;;
9473;SDS011;8865;47.636;7.692;2023-04-28T02:19:20;6.47;;;2.90;;
9473;SDS011;8865;47.636;7.692;2023-04-28T02:21:46;4.63;;;2.87;;
9473;SDS011;8865;47.636;7.692;2023-04-28T02:24:12;4.03;;;2.80;;
9473;SDS011;8865;47.636;7.692;2023-04-28T02:26:38;3.57;;;2.80;;
9473;SDS011;8865;47.636;7.692;2023-04-28T02:29:03;3.23;;;2.70;;
9473;SDS011;8865;47.636;7.692;2023-04-28T02:31:30;6.20;;;2.77;;
9473;SDS011;8865;47.636;7.692;2023-04-28T02:33:56;6.40;;;3.20;;
9473;SDS011;8865;47.636;7.692;2023-04-28T02:36:22;5.63;;;3.10;;
9473;SDS011;8865;47.636;7.692;2023-04-28T02:38:48;5.27;;;3.23;;
9473;SDS011;8865;47.636;7.692;2023-04-28T02:41:14;3.17;;;2.53;;
9473;SDS011;8865;47.636;7.692;2023-04-28T02:43:40;4.40;;;2.70;;
9473;SDS011;8865;47.636;7.692;2023-04-28T02:46:06;4.70;;;3.10;;
9473;SDS011;8865;47.636;7.692;2023-04-28T02:48:33;5.90;;;2.90;;
9473;SDS011;8865;47.636;7.692;2023-04-28T02:51:00;3.63;;;2.90;;
9473;SDS011;8865;47.636;7.692;2023-04-28T02:53:27;4.97;;;3.13;;
9473;SDS011;8865;47.636;7.692;2023-04-28T02:55:53;3.90;;;3.07;;
9473;SDS011;8865;47.636;7.692;2023-04-28T02:58:19;3.70;;;2.80;;
9473;SDS011;8865;47.636;7.692;2023-04-28T03:00:45;3.80;;;2.90;;
9473;SDS011;8865;47.636;7.692;2023-04-28T03:03:13;5.17;;;3.20;;
9473;SDS011;8865;47.636;7.692;2023-04-28T03:05:39;3.63;;;2.90;;
9473;SDS011;8865;47.636;7.692;2023-04-28T03:08:05;4.87;;;2.90;;
9473;SDS011;8865;47.636;7.692;2023-04-28T03:10:31;2.77;;;2.43;;
9473;SDS011;8865;47.636;7.692;2023-04-28T03:12:57;5.87;;;2.83;;
9473;SDS011;8865;47.636;7.692;2023-04-28T03:15:23;4.73;;;2.90;;
9473;SDS011;8865;47.636;7.692;2023-04-28T03:17:50;3.10;;;2.80;;
9473;SDS011;8865;47.636;7.692;2023-04-28T03:20:15;3.97;;;2.90;;
9473;SDS011;8865;47.636;7.692;2023-04-28T03:22:41;3.57;;;2.90;;
9473;SDS011;8865;47.636;7.692;2023-04-28T03:25:07;6.30;;;3.10;;
9473;SDS011;8865;47.636;7.692;2023-04-28T03:27:33;4.80;;;3.00;;
9473;SDS011;8865;47.636;7.692;2023-04-28T03:30:00;3.87;;;2.73;;
9473;SDS011;8865;47.636;7.692;2023-04-28T03:32:26;3.40;;;2.83;;
9473;SDS011;8865;47.636;7.692;2023-04-28T03:34:52;3.83;;;2.70;;
9473;SDS011;8865;47.636;7.692;2023-04-28T03:37:18;4.13;;;2.67;;
9473;SDS011;8865;47.636;7.692;2023-04-28T03:39:44;5.33;;;2.80;;
9473;SDS011;8865;47.636;7.692;2023-04-28T03:42:10;5.53;;;3.10;;
9473;SDS011;8865;47.636;7.692;2023-04-28T03:44:36;3.93;;;3.00;;
9473;SDS011;8865;47.636;7.692;2023-04-28T03:47:02;4.03;;;3.03;;
9473;SDS011;8865;47.636;7.692;2023-04-28T03:49:28;3.20;;;2.73;;
9473;SDS011;8865;47.636;7.692;2023-04-28T03:51:54;4.77;;;3.03;;
9473;SDS011;8865;47.636;7.692;2023-04-28T03:54:20;6.50;;;3.50;;
9473;SDS011;8865;47.636;7.692;2023-04-28T03:56:46;2.90;;;2.60;;
9473;SDS011;8865;47.636;7.692;2023-04-28T03:59:12;3.53;;;3.00;;
9473;SDS011;8865;47.636;7.692;2023-04-28T04:01:38;4.20;;;3.23;;
9473;SDS011;8865;47.636;7.692;2023-04-28T04:04:04;5.33;;;3.23;;
9473;SDS011;8865;47.636;7.692;2023-04-28T04:06:30;3.67;;;3.03;;
9473;SDS011;8865;47.636;7.692;2023-04-28T04:08:56;5.20;;;3.30;;
9473;SDS011;8865;47.636;7.692;2023-04-28T04:11:23;4.73;;;3.23;;
9473;SDS011;8865;47.636;7.692;2023-04-28T04:13:48;6.47;;;3.20;;
9473;SDS011;8865;47.636;7.692;2023-04-28T04:16:14;5.20;;;3.17;;
9473;SDS011;8865;47.636;7.692;2023-04-28T04:18:41;6.37;;;3.40;;
9473;SDS011;8865;47.636;7.692;2023-04-28T04:21:07;5.97;;;3.43;;
9473;SDS011;8865;47.636;7.692;2023-04-28T04:23:33;5.70;;;3.43;;
9473;SDS011;8865;47.636;7.692;2023-04-28T04:25:59;4.53;;;3.50;;
9473;SDS011;8865;47.636;7.692;2023-04-28T04:28:25;5.80;;;3.47;;
9473;SDS011;8865;47.636;7.692;2023-04-28T04:30:51;4.67;;;3.30;;
9473;SDS011;8865;47.636;7.692;2023-04-28T04:33:18;4.00;;;3.60;;
9473;SDS011;8865;47.636;7.692;2023-04-28T04:35:44;4.80;;;3.60;;
9473;SDS011;8865;47.636;7.692;2023-04-28T04:38:10;5.83;;;4.53;;
9473;SDS011;8865;47.636;7.692;2023-04-28T04:40:37;5.87;;;4.40;;
9473;SDS011;8865;47.636;7.692;2023-04-28T04:43:03;5.27;;;4.00;;
9473;SDS011;8865;47.636;7.692;2023-04-28T04:45:29;6.17;;;3.97;;
9473;SDS011;8865;47.636;7.692;2023-04-28T04:47:55;4.57;;;3.93;;
9473;SDS011;8865;47.636;7.692;2023-04-28T04:50:21;6.77;;;3.70;;
9473;SDS011;8865;47.636;7.692;2023-04-28T04:52:47;3.90;;;3.53;;
9473;SDS011;8865;47.636;7.692;2023-04-28T04:55:13;5.23;;;3.70;;
9473;SDS011;8865;47.636;7.692;2023-04-28T04:57:40;4.37;;;3.67;;
9473;SDS011;8865;47.636;7.692;2023-04-28T05:00:06;7.20;;;4.10;;
9473;SDS011;8865;47.636;7.692;2023-04-28T05:02:32;4.07;;;3.33;;
9473;SDS011;8865;47.636;7.692;2023-04-28T05:04:58;4.80;;;3.87;;
9473;SDS011;8865;47.636;7.692;2023-04-28T05:07:24;4.93;;;3.70;;
9473;SDS011;8865;47.636;7.692;2023-04-28T05:09:51;4.37;;;3.33;;
9473;SDS011;8865;47.636;7.692;2023-04-28T05:12:17;4.80;;;3.50;;
9473;SDS011;8865;47.636;7.692;2023-04-28T05:14:43;6.93;;;4.03;;
9473;SDS011;8865;47.636;7.692;2023-04-28T05:17:09;6.77;;;4.30;;
9473;SDS011;8865;47.636;7.692;2023-04-28T05:19:35;5.37;;;4.23;;
9473;SDS011;8865;47.636;7.692;2023-04-28T05:22:01;5.53;;;3.90;;
9473;SDS011;8865;47.636;7.692;2023-04-28T05:24:27;6.20;;;4.30;;
9473;SDS011;8865;47.636;7.692;2023-04-28T05:26:53;4.40;;;4.00;;
9473;SDS011;8865;47.636;7.692;2023-04-28T05:29:23;5.33;;;4.63;;
9473;SDS011;8865;47.636;7.692;2023-04-28T05:31:49;6.87;;;4.30;;
9473;SDS011;8865;47.636;7.692;2023-04-28T05:34:15;5.40;;;4.70;;
9473;SDS011;8865;47.636;7.692;2023-04-28T05:36:41;5.70;;;4.67;;
9473;SDS011;8865;47.636;7.692;2023-04-28T05:39:07;5.83;;;4.37;;
9473;SDS011;8865;47.636;7.692;2023-04-28T05:41:34;6.47;;;4.90;;
9473;SDS011;8865;47.636;7.692;2023-04-28T05:44:01;5.57;;;4.40;;
9473;SDS011;8865;47.636;7.692;2023-04-28T05:46:27;6.20;;;4.60;;
9473;SDS011;8865;47.636;7.692;2023-04-28T05:48:53;4.73;;;4.30;;
9473;SDS011;8865;47.636;7.692;2023-04-28T05:51:19;5.73;;;4.80;;
9473;SDS011;8865;47.636;7.692;2023-04-28T05:53:46;6.10;;;4.53;;
9473;SDS011;8865;47.636;7.692;2023-04-28T05:56:13;6.93;;;4.53;;
9473;SDS011;8865;47.636;7.692;2023-04-28T05:58:40;6.17;;;4.80;;
9473;SDS011;8865;47.636;7.692;2023-04-28T06:01:09;5.90;;;4.30;;
9473;SDS011;8865;47.636;7.692;2023-04-28T06:03:36;5.27;;;4.30;;
9473;SDS011;8865;47.636;7.692;2023-04-28T06:06:02;5.50;;;4.13;;
9473;SDS011;8865;47.636;7.692;2023-04-28T06:08:28;4.13;;;3.60;;
9473;SDS011;8865;47.636;7.692;2023-04-28T06:10:54;5.03;;;4.13;;
9473;SDS011;8865;47.636;7.692;2023-04-28T06:13:20;5.57;;;3.83;;
9473;SDS011;8865;47.636;7.692;2023-04-28T06:15:46;5.53;;;3.83;;
9473;SDS011;8865;47.636;7.692;2023-04-28T06:18:12;4.37;;;3.50;;
9473;SDS011;8865;47.636;7.692;2023-04-28T06:20:38;3.80;;;3.23;;
9473;SDS011;8865;47.636;7.692;2023-04-28T06:23:04;3.50;;;3.20;;
9473;SDS011;8865;47.636;7.692;2023-04-28T06:25:30;3.13;;;2.90;;
9473;SDS011;8865;47.636;7.692;2023-04-28T06:27:56;4.47;;;3.20;;
9473;SDS011;8865;47.636;7.692;2023-04-28T06:30:22;5.97;;;3.00;;
9473;SDS011;8865;47.636;7.692;2023-04-28T06:32:49;2.97;;;2.70;;
9473;SDS011;8865;47.636;7.692;2023-04-28T06:35:15;3.33;;;2.83;;
9473;SDS011;8865;47.636;7.692;2023-04-28T06:37:44;3.50;;;3.20;;
9473;SDS011;8865;47.636;7.692;2023-04-28T06:40:10;4.03;;;3.43;;
9473;SDS011;8865;47.636;7.692;2023-04-28T06:42:36;3.47;;;3.17;;
9473;SDS011;8865;47.636;7.692;2023-04-28T06:45:02;3.53;;;3.23;;
9473;SDS011;8865;47.636;7.692;2023-04-28T06:47:28;3.30;;;3.00;;
9473;SDS011;8865;47.636;7.692;2023-04-28T06:49:54;4.53;;;3.73;;
9473;SDS011;8865;47.636;7.692;2023-04-28T06:52:20;3.87;;;3.53;;
9473;SDS011;8865;47.636;7.692;2023-04-28T06:54:47;3.80;;;3.50;;
9473;SDS011;8865;47.636;7.692;2023-04-28T06:57:13;4.03;;;3.70;;
9473;SDS011;8865;47.636;7.692;2023-04-28T06:59:39;4.40;;;4.00;;
9473;SDS011;8865;47.636;7.692;2023-04-28T07:02:08;3.77;;;3.43;;
9473;SDS011;8865;47.636;7.692;2023-04-28T07:04:35;4.60;;;3.23;;
9473;SDS011;8865;47.636;7.692;2023-04-28T07:07:01;3.60;;;3.30;;
9473;SDS011;8865;47.636;7.692;2023-04-28T07:09:27;3.70;;;3.23;;
9473;SDS011;8865;47.636;7.692;2023-04-28T07:11:53;3.73;;;3.07;;
9473;SDS011;8865;47.636;7.692;2023-04-28T07:14:19;3.10;;;2.80;;
9473;SDS011;8865;47.636;7.692;2023-04-28T07:16:45;3.20;;;2.67;;
9473;SDS011;8865;47.636;7.692;2023-04-28T07:19:11;3.33;;;3.00;;
9473;SDS011;8865;47.636;7.692;2023-04-28T07:21:37;3.30;;;3.00;;
9473;SDS011;8865;47.636;7.692;2023-04-28T07:24:03;4.00;;;3.17;;
9473;SDS011;8865;47.636;7.692;2023-04-28T07:26:29;5.03;;;3.60;;
9473;SDS011;8865;47.636;7.692;2023-04-28T07:28:55;5.20;;;3.27;;
9473;SDS011;8865;47.636;7.692;2023-04-28T07:31:21;3.93;;;3.57;;
9473;SDS011;8865;47.636;7.692;2023-04-28T07:33:47;3.77;;;3.47;;
9473;SDS011;8865;47.636;7.692;2023-04-28T07:36:14;4.10;;;3.80;;
9473;SDS011;8865;47.636;7.692;2023-04-28T07:38:40;3.77;;;3.47;;
9473;SDS011;8865;47.636;7.692;2023-04-28T07:41:06;4.00;;;3.40;;
9473;SDS011;8865;47.636;7.692;2023-04-28T07:43:32;3.67;;;3.37;;
9473;SDS011;8865;47.636;7.692;2023-04-28T07:45:58;4.30;;;3.70;;
9473;SDS011;8865;47.636;7.692;2023-04-28T07:48:23;8.27;;;4.00;;
9473;SDS011;8865;47.636;7.692;2023-04-28T07:50:52;5.40;;;3.57;;
9473;SDS011;8865;47.636;7.692;2023-04-28T07:53:18;5.83;;;4.27;;
9473;SDS011;8865;47.636;7.692;2023-04-28T07:55:44;4.17;;;3.80;;
9473;SDS011;8865;47.636;7.692;2023-04-28T07:58:11;5.80;;;4.30;;
9473;SDS011;8865;47.636;7.692;2023-04-28T08:00:37;5.73;;;4.33;;
9473;SDS011;8865;47.636;7.692;2023-04-28T08:03:03;4.90;;;4.47;;
9473;SDS011;8865;47.636;7.692;2023-04-28T08:05:29;6.00;;;4.20;;
9473;SDS011;8865;47.636;7.692;2023-04-28T08:07:56;5.50;;;4.10;;
9473;SDS011;8865;47.636;7.692;2023-04-28T08:10:22;5.57;;;3.83;;
9473;SDS011;8865;47.636;7.692;2023-04-28T08:12:48;4.20;;;3.83;;
9473;SDS011;8865;47.636;7.692;2023-04-28T08:15:14;4.50;;;4.10;;
9473;SDS011;8865;47.636;7.692;2023-04-28T08:17:40;4.10;;;3.70;;
9473;SDS011;8865;47.636;7.692;2023-04-28T08:20:06;5.43;;;3.80;;
9473;SDS011;8865;47.636;7.692;2023-04-28T08:22:33;3.70;;;3.23;;
9473;SDS011;8865;47.636;7.692;2023-04-28T08:25:00;3.87;;;3.57;;
9473;SDS011;8865;47.636;7.692;2023-04-28T08:27:26;3.80;;;3.50;;
9473;SDS011;8865;47.636;7.692;2023-04-28T08:29:53;4.33;;;3.67;;
9473;SDS011;8865;47.636;7.692;2023-04-28T08:32:19;4.17;;;3.77;;
9473;SDS011;8865;47.636;7.692;2023-04-28T08:34:45;4.23;;;3.90;;
9473;SDS011;8865;47.636;7.692;2023-04-28T08:37:10;4.20;;;3.80;;
9473;SDS011;8865;47.636;7.692;2023-04-28T08:39:36;4.50;;;4.03;;
9473;SDS011;8865;47.636;7.692;2023-04-28T08:42:03;5.00;;;4.30;;
9473;SDS011;8865;47.636;7.692;2023-04-28T08:44:36;4.43;;;4.03;;
9473;SDS011;8865;47.636;7.692;2023-04-28T08:47:12;5.53;;;3.77;;
9473;SDS011;8865;47.636;7.692;2023-04-28T08:49:39;4.50;;;4.10;;
9473;SDS011;8865;47.636;7.692;2023-04-28T08:52:10;4.20;;;3.80;;
9473;SDS011;8865;47.636;7.692;2023-04-28T08:54:38;4.83;;;4.43;;
9473;SDS011;8865;47.636;7.692;2023-04-28T08:57:08;5.87;;;4.37;;
9473;SDS011;8865;47.636;7.692;2023-04-28T08:59:38;5.07;;;4.27;;
9473;SDS011;8865;47.636;7.692;2023-04-28T09:02:08;5.17;;;4.00;;
9473;SDS011;8865;47.636;7.692;2023-04-28T09:04:34;7.30;;;4.30;;
9473;SDS011;8865;47.636;7.692;2023-04-28T09:07:00;5.80;;;4.67;;
9473;SDS011;8865;47.636;7.692;2023-04-28T09:09:27;6.53;;;4.30;;
9473;SDS011;8865;47.636;7.692;2023-04-28T09:11:58;6.30;;;4.30;;
9473;SDS011;8865;47.636;7.692;2023-04-28T09:14:28;7.30;;;4.50;;
9473;SDS011;8865;47.636;7.692;2023-04-28T09:16:55;5.67;;;4.00;;
9473;SDS011;8865;47.636;7.692;2023-04-28T09:19:22;4.00;;;3.53;;
9473;SDS011;8865;47.636;7.692;2023-04-28T09:21:48;7.57;;;4.20;;
9473;SDS011;8865;47.636;7.692;2023-04-28T09:26:53;7.50;;;4.03;;
9473;SDS011;8865;47.636;7.692;2023-04-28T09:29:19;5.20;;;4.23;;
9473;SDS011;8865;47.636;7.692;2023-04-28T09:31:45;5.17;;;4.00;;
9473;SDS011;8865;47.636;7.692;2023-04-28T09:34:11;6.73;;;3.90;;
9473;SDS011;8865;47.636;7.692;2023-04-28T09:36:37;5.37;;;4.00;;
9473;SDS011;8865;47.636;7.692;2023-04-28T09:39:03;6.47;;;3.93;;
9473;SDS011;8865;47.636;7.692;2023-04-28T09:41:36;6.13;;;4.00;;
9473;SDS011;8865;47.636;7.692;2023-04-28T09:44:09;4.63;;;3.80;;
9473;SDS011;8865;47.636;7.692;2023-04-28T09:46:36;6.97;;;4.20;;
9473;SDS011;8865;47.636;7.692;2023-04-28T09:49:02;6.70;;;4.03;;
9473;SDS011;8865;47.636;7.692;2023-04-28T09:51:28;6.03;;;4.13;;
9473;SDS011;8865;47.636;7.692;2023-04-28T09:53:54;3.87;;;3.53;;
9473;SDS011;8865;47.636;7.692;2023-04-28T09:56:28;5.90;;;4.00;;
9473;SDS011;8865;47.636;7.692;2023-04-28T09:58:58;5.13;;;4.00;;
9473;SDS011;8865;47.636;7.692;2023-04-28T10:01:32;4.77;;;4.10;;
9473;SDS011;8865;47.636;7.692;2023-04-28T10:04:05;6.47;;;4.13;;
9473;SDS011;8865;47.636;7.692;2023-04-28T10:06:32;4.80;;;4.27;;
9473;SDS011;8865;47.636;7.692;2023-04-28T10:09:01;6.30;;;4.93;;
9473;SDS011;8865;47.636;7.692;2023-04-28T10:11:27;7.63;;;4.87;;
9473;SDS011;8865;47.636;7.692;2023-04-28T10:13:53;7.97;;;4.27;;
9473;SDS011;8865;47.636;7.692;2023-04-28T10:16:19;7.37;;;4.73;;
9473;SDS011;8865;47.636;7.692;2023-04-28T10:18:46;6.47;;;4.50;;
9473;SDS011;8865;47.636;7.692;2023-04-28T10:21:15;5.90;;;4.43;;
9473;SDS011;8865;47.636;7.692;2023-04-28T10:26:57;6.07;;;4.40;;
9473;SDS011;8865;47.636;7.692;2023-04-28T10:29:29;5.40;;;4.53;;
9473;SDS011;8865;47.636;7.692;2023-04-28T10:32:43;4.63;;;4.13;;
9473;SDS011;8865;47.636;7.692;2023-04-28T10:34:48;4.77;;;3.97;;
9473;SDS011;8865;47.636;7.692;2023-04-28T10:37:14;4.43;;;3.90;;
9473;SDS011;8865;47.636;7.692;2023-04-28T10:40:13;3.97;;;3.63;;
9473;SDS011;8865;47.636;7.692;2023-04-28T10:42:53;4.87;;;4.10;;
9473;SDS011;8865;47.636;7.692;2023-04-28T10:56:07;3.90;;;3.27;;
9473;SDS011;8865;47.636;7.692;2023-04-28T10:58:37;3.50;;;3.20;;
9473;SDS011;8865;47.636;7.692;2023-04-28T11:03:50;3.43;;;2.90;;
9473;SDS011;8865;47.636;7.692;2023-04-28T11:08:57;4.60;;;3.47;;
9473;SDS011;8865;47.636;7.692;2023-04-28T11:11:31;3.70;;;3.27;;
9473;SDS011;8865;47.636;7.692;2023-04-28T11:16:48;3.50;;;3.20;;
9473;SDS011;8865;47.636;7.692;2023-04-28T11:19:17;3.50;;;2.90;;
9473;SDS011;8865;47.636;7.692;2023-04-28T11:21:45;3.10;;;2.90;;
9473;SDS011;8865;47.636;7.692;2023-04-28T11:24:15;3.83;;;3.03;;
9473;SDS011;8865;47.636;7.692;2023-04-28T11:26:41;3.60;;;3.20;;
9473;SDS011;8865;47.636;7.692;2023-04-28T11:29:09;5.73;;;3.30;;
9473;SDS011;8865;47.636;7.692;2023-04-28T11:31:36;3.20;;;2.67;;
9473;SDS011;8865;47.636;7.692;2023-04-28T11:36:31;3.27;;;2.60;;
9473;SDS011;8865;47.636;7.692;2023-04-28T11:39:04;3.30;;;2.70;;
9473;SDS011;8865;47.636;7.692;2023-04-28T11:41:32;2.97;;;2.70;;
9473;SDS011;8865;47.636;7.692;2023-04-28T11:44:09;3.47;;;2.60;;
9473;SDS011;8865;47.636;7.692;2023-04-28T11:46:47;3.03;;;2.70;;
9473;SDS011;8865;47.636;7.692;2023-04-28T11:49:20;4.30;;;3.13;;
9473;SDS011;8865;47.636;7.692;2023-04-28T11:51:51;3.70;;;3.20;;
9473;SDS011;8865;47.636;7.692;2023-04-28T11:54:20;3.23;;;2.77;;
9473;SDS011;8865;47.636;7.692;2023-04-28T11:56:48;4.40;;;3.10;;
9473;SDS011;8865;47.636;7.692;2023-04-28T11:59:14;4.37;;;3.20;;
9473;SDS011;8865;47.636;7.692;2023-04-28T12:04:09;3.63;;;3.30;;
9473;SDS011;8865;47.636;7.692;2023-04-28T12:06:36;3.67;;;3.10;;
9473;SDS011;8865;47.636;7.692;2023-04-28T12:09:13;3.00;;;2.53;;
9473;SDS011;8865;47.636;7.692;2023-04-28T12:11:51;3.13;;;2.40;;
9473;SDS011;8865;47.636;7.692;2023-04-28T12:14:22;4.30;;;2.30;;
9473;SDS011;8865;47.636;7.692;2023-04-28T12:16:49;2.77;;;2.37;;
9473;SDS011;8865;47.636;7.692;2023-04-28T12:19:16;4.07;;;2.47;;
9473;SDS011;8865;47.636;7.692;2023-04-28T12:21:43;2.53;;;1.90;;
9473;SDS011;8865;47.636;7.692;2023-04-28T12:24:13;2.40;;;2.20;;
9473;SDS011;8865;47.636;7.692;2023-04-28T12:26:39;2.87;;;2.17;;
9473;SDS011;8865;47.636;7.692;2023-04-28T12:29:05;6.00;;;2.47;;
9473;SDS011;8865;47.636;7.692;2023-04-28T12:31:31;2.40;;;2.20;;
9473;SDS011;8865;47.636;7.692;2023-04-28T12:33:57;3.00;;;2.03;;
9473;SDS011;8865;47.636;7.692;2023-04-28T12:36:23;3.90;;;2.17;;
9473;SDS011;8865;47.636;7.692;2023-04-28T12:38:49;3.50;;;2.33;;
9473;SDS011;8865;47.636;7.692;2023-04-28T12:41:16;2.50;;;2.00;;
9473;SDS011;8865;47.636;7.692;2023-04-28T12:43:42;3.07;;;1.90;;
9473;SDS011;8865;47.636;7.692;2023-04-28T12:46:09;2.20;;;1.90;;
9473;SDS011;8865;47.636;7.692;2023-04-28T12:48:37;2.10;;;1.80;;
9473;SDS011;8865;47.636;7.692;2023-04-28T12:51:03;2.07;;;1.97;;
9473;SDS011;8865;47.636;7.692;2023-04-28T12:53:28;2.87;;;2.40;;
9473;SDS011;8865;47.636;7.692;2023-04-28T12:55:54;2.33;;;1.80;;
9473;SDS011;8865;47.636;7.692;2023-04-28T12:58:21;1.90;;;1.73;;
9473;SDS011;8865;47.636;7.692;2023-04-28T13:00:47;3.00;;;2.23;;
9473;SDS011;8865;47.636;7.692;2023-04-28T13:03:13;1.63;;;1.53;;
9473;SDS011;8865;47.636;7.692;2023-04-28T13:05:40;2.73;;;1.80;;
9473;SDS011;8865;47.636;7.692;2023-04-28T13:08:06;3.00;;;1.97;;
9473;SDS011;8865;47.636;7.692;2023-04-28T13:10:32;2.50;;;1.80;;
9473;SDS011;8865;47.636;7.692;2023-04-28T13:12:57;2.70;;;1.70;;
9473;SDS011;8865;47.636;7.692;2023-04-28T13:15:23;5.17;;;2.10;;
9473;SDS011;8865;47.636;7.692;2023-04-28T13:17:50;1.93;;;1.80;;
9473;SDS011;8865;47.636;7.692;2023-04-28T13:20:16;4.37;;;1.93;;
9473;SDS011;8865;47.636;7.692;2023-04-28T13:22:42;3.10;;;2.10;;
9473;SDS011;8865;47.636;7.692;2023-04-28T13:25:08;5.83;;;2.10;;
9473;SDS011;8865;47.636;7.692;2023-04-28T13:27:34;4.57;;;2.30;;
9473;SDS011;8865;47.636;7.692;2023-04-28T13:30:01;4.80;;;2.40;;
9473;SDS011;8865;47.636;7.692;2023-04-28T13:32:28;3.10;;;2.53;;
9473;SDS011;8865;47.636;7.692;2023-04-28T13:34:54;5.63;;;2.83;;
9473;SDS011;8865;47.636;7.692;2023-04-28T13:37:20;5.17;;;2.40;;
9473;SDS011;8865;47.636;7.692;2023-04-28T13:39:46;4.33;;;2.40;;
9473;SDS011;8865;47.636;7.692;2023-04-28T13:42:12;6.07;;;2.67;;
9473;SDS011;8865;47.636;7.692;2023-04-28T13:44:38;3.30;;;3.00;;
9473;SDS011;8865;47.636;7.692;2023-04-28T13:47:04;3.33;;;2.90;;
9473;SDS011;8865;47.636;7.692;2023-04-28T13:49:33;5.33;;;2.73;;
9473;SDS011;8865;47.636;7.692;2023-04-28T13:52:01;4.03;;;3.30;;
9473;SDS011;8865;47.636;7.692;2023-04-28T13:54:28;5.00;;;2.80;;
9473;SDS011;8865;47.636;7.692;2023-04-28T13:56:55;6.10;;;3.23;;
9473;SDS011;8865;47.636;7.692;2023-04-28T13:59:21;3.40;;;2.60;;
9473;SDS011;8865;47.636;7.692;2023-04-28T14:01:47;5.10;;;2.93;;
9473;SDS011;8865;47.636;7.692;2023-04-28T14:04:13;6.13;;;2.90;;
9473;SDS011;8865;47.636;7.692;2023-04-28T14:06:39;7.50;;;3.43;;
9473;SDS011;8865;47.636;7.692;2023-04-28T14:09:05;7.37;;;3.43;;
9473;SDS011;8865;47.636;7.692;2023-04-28T14:11:31;4.40;;;3.00;;
9473;SDS011;8865;47.636;7.692;2023-04-28T14:13:57;5.43;;;2.43;;
9473;SDS011;8865;47.636;7.692;2023-04-28T14:16:23;6.50;;;2.67;;
9473;SDS011;8865;47.636;7.692;2023-04-28T14:18:50;4.47;;;2.37;;
9473;SDS011;8865;47.636;7.692;2023-04-28T14:21:16;4.40;;;2.23;;
9473;SDS011;8865;47.636;7.692;2023-04-28T14:23:42;3.33;;;2.00;;
9473;SDS011;8865;47.636;7.692;2023-04-28T14:26:08;3.77;;;2.00;;
9473;SDS011;8865;47.636;7.692;2023-04-28T14:28:34;4.00;;;2.20;;
9473;SDS011;8865;47.636;7.692;2023-04-28T14:31:02;5.33;;;2.27;;
9473;SDS011;8865;47.636;7.692;2023-04-28T14:33:31;4.63;;;2.33;;
9473;SDS011;8865;47.636;7.692;2023-04-28T14:35:57;4.53;;;2.20;;
9473;SDS011;8865;47.636;7.692;2023-04-28T14:38:25;2.80;;;2.40;;
9473;SDS011;8865;47.636;7.692;2023-04-28T14:40:51;3.43;;;2.30;;
9473;SDS011;8865;47.636;7.692;2023-04-28T14:43:17;4.43;;;2.37;;
9473;SDS011;8865;47.636;7.692;2023-04-28T14:45:43;5.10;;;2.40;;
9473;SDS011;8865;47.636;7.692;2023-04-28T14:48:09;2.83;;;2.50;;
9473;SDS011;8865;47.636;7.692;2023-04-28T14:50:36;3.27;;;2.40;;
9473;SDS011;8865;47.636;7.692;2023-04-28T14:53:02;3.30;;;2.33;;
9473;SDS011;8865;47.636;7.692;2023-04-28T14:55:32;3.97;;;2.40;;
9473;SDS011;8865;47.636;7.692;2023-04-28T14:57:58;3.23;;;2.30;;
9473;SDS011;8865;47.636;7.692;2023-04-28T15:00:24;2.50;;;2.30;;
9473;SDS011;8865;47.636;7.692;2023-04-28T15:02:49;3.30;;;2.80;;
9473;SDS011;8865;47.636;7.692;2023-04-28T15:05:15;4.07;;;2.67;;
9473;SDS011;8865;47.636;7.692;2023-04-28T15:07:41;3.77;;;2.23;;
9473;SDS011;8865;47.636;7.692;2023-04-28T15:10:07;4.93;;;2.53;;
9473;SDS011;8865;47.636;7.692;2023-04-28T15:12:33;4.07;;;2.60;;
9473;SDS011;8865;47.636;7.692;2023-04-28T15:14:59;4.03;;;2.30;;
9473;SDS011;8865;47.636;7.692;2023-04-28T15:17:26;4.90;;;2.27;;
9473;SDS011;8865;47.636;7.692;2023-04-28T15:19:53;6.47;;;2.70;;
9473;SDS011;8865;47.636;7.692;2023-04-28T15:22:19;4.50;;;2.70;;
9473;SDS011;8865;47.636;7.692;2023-04-28T15:24:46;6.87;;;2.97;;
9473;SDS011;8865;47.636;7.692;2023-04-28T15:27:12;5.87;;;3.10;;
9473;SDS011;8865;47.636;7.692;2023-04-28T15:29:42;6.77;;;4.10;;
9473;SDS011;8865;47.636;7.692;2023-04-28T15:32:08;4.87;;;3.37;;
9473;SDS011;8865;47.636;7.692;2023-04-28T15:34:34;6.60;;;3.47;;
9473;SDS011;8865;47.636;7.692;2023-04-28T15:37:00;4.03;;;3.03;;
9473;SDS011;8865;47.636;7.692;2023-04-28T15:39:29;5.93;;;3.27;;
9473;SDS011;8865;47.636;7.692;2023-04-28T15:41:56;9.70;;;3.33;;
9473;SDS011;8865;47.636;7.692;2023-04-28T15:44:23;3.00;;;2.60;;